^^
Saratoga-Weather Station Historical Data
Daily Summary for January 10, 2020 Units:  Both    English   Metric
Daily Weekly Monthly Yearly Custom
  High: Low: Average:
Temperature: 76.6 °F /  24.8 °C 60.8 °F /  16 °C 67.1 °F /  19.5 °C
Dew Point: 62.4 °F /  16.9 °C 54.7 °F /  12.6 °C 60.4 °F /  15.8 °C
Humidity: 94% 59% 80%
Wind Speed: 4.9mph /  7.9km/h - 1mph /  1.6km/h
Wind Gust: 8mph /  12.9km/h - -
Wind- - SSE
Pressure: 30.2 in /  1021.0 hPa 30 in /  1016.3 hPa -
Precipitation: 0.09 in /  2.3 mm    
Historical Graphs
 
 
Tabular Data for January 10, 2020
Time Temperature Dew Point Pressure Wind Wind Speed Wind Gust Humidity Rainfall Rate (Hourly) solar
00:02 68.5 °F /  20.3 °C 59.9 °F /  15.5 °C 30.1in /  1020.0hPa West 2mph /  3.2km/h 4mph /  6.4km/h 74% 0in /  0.0mm 0 W/m2
00:07 68.5 °F /  20.3 °C 59.9 °F /  15.5 °C 30.1in /  1020.0hPa West 2mph /  3.2km/h 4mph /  6.4km/h 74% 0in /  0.0mm 0 W/m2
00:12 68.5 °F /  20.3 °C 59.9 °F /  15.5 °C 30.1in /  1020.0hPa WNW 2.9mph /  4.7km/h 4mph /  6.4km/h 74% 0in /  0.0mm 0 W/m2
00:17 68.5 °F /  20.3 °C 59.9 °F /  15.5 °C 30.1in /  1020.0hPa West 2mph /  3.2km/h 3mph /  4.8km/h 74% 0in /  0.0mm 0 W/m2
00:22 68.5 °F /  20.3 °C 59.9 °F /  15.5 °C 30.1in /  1020.0hPa West 2.9mph /  4.7km/h 3mph /  4.8km/h 74% 0in /  0.0mm 0 W/m2
00:27 68.5 °F /  20.3 °C 59.9 °F /  15.5 °C 30.1in /  1020.0hPa West 2mph /  3.2km/h 3mph /  4.8km/h 74% 0in /  0.0mm 0 W/m2
00:32 68.5 °F /  20.3 °C 59.9 °F /  15.5 °C 30.1in /  1020.0hPa WSW 0.9mph /  1.4km/h 3mph /  4.8km/h 74% 0in /  0.0mm 0 W/m2
00:37 68.5 °F /  20.3 °C 59.9 °F /  15.5 °C 30.1in /  1019.6hPa Calm   2mph /  3.2km/h 74% 0in /  0.0mm 0 W/m2
00:42 68.5 °F /  20.3 °C 59.9 °F /  15.5 °C 30.1in /  1020.0hPa WSW 3mph /  4.8km/h 3mph /  4.8km/h 74% 0in /  0.0mm 0 W/m2
00:47 68.5 °F /  20.3 °C 59.9 °F /  15.5 °C 30.1in /  1020.0hPa Calm     74% 0in /  0.0mm 0 W/m2
00:52 68.4 °F /  20.2 °C 59.7 °F /  15.4 °C 30.1in /  1019.6hPa Calm   1mph /  1.6km/h 74% 0in /  0.0mm 0 W/m2
00:57 68.2 °F /  20.1 °C 59.9 °F /  15.5 °C 30.1in /  1019.6hPa WSW 0.9mph /  1.4km/h 2mph /  3.2km/h 75% 0in /  0.0mm 0 W/m2
01:02 67.6 °F /  19.8 °C 59.4 °F /  15.2 °C 30.1in /  1019.6hPa Calm   1mph /  1.6km/h 75% 0in /  0.0mm 0 W/m2
01:07 67.5 °F /  19.7 °C 59.5 °F /  15.3 °C 30.1in /  1019.6hPa Calm   1mph /  1.6km/h 76% 0in /  0.0mm 0 W/m2
01:12 67.1 °F /  19.5 °C 59.7 °F /  15.4 °C 30.1in /  1020.0hPa Calm     77% 0in /  0.0mm 0 W/m2
01:17 66.7 °F /  19.3 °C 59.7 °F /  15.4 °C 30.1in /  1020.0hPa Calm     78% 0in /  0.0mm 0 W/m2
01:22 66.6 °F /  19.2 °C 59.5 °F /  15.3 °C 30.1in /  1020.0hPa Calm     78% 0in /  0.0mm 0 W/m2
01:27 66.4 °F /  19.1 °C 59.7 °F /  15.4 °C 30.1in /  1020.0hPa Calm     79% 0in /  0.0mm 0 W/m2
01:32 66 °F /  18.9 °C 59.4 °F /  15.2 °C 30.1in /  1020.0hPa Calm     79% 0in /  0.0mm 0 W/m2
01:37 65.8 °F /  18.8 °C 59.5 °F /  15.3 °C 30.1in /  1020.0hPa Calm     80% 0in /  0.0mm 0 W/m2
01:42 65.7 °F /  18.7 °C 59.4 °F /  15.2 °C 30.1in /  1020.0hPa Calm     80% 0in /  0.0mm 0 W/m2
01:47 65.7 °F /  18.7 °C 59.7 °F /  15.4 °C 30.1in /  1020.0hPa Calm     81% 0in /  0.0mm 0 W/m2
01:52 65.5 °F /  18.6 °C 59.5 °F /  15.3 °C 30.1in /  1020.0hPa Calm     81% 0in /  0.0mm 0 W/m2
01:57 65.3 °F /  18.5 °C 59.4 °F /  15.2 °C 30.1in /  1020.3hPa Calm     81% 0in /  0.0mm 0 W/m2
02:02 65.3 °F /  18.5 °C 59.4 °F /  15.2 °C 30.1in /  1020.0hPa Calm   1mph /  1.6km/h 81% 0in /  0.0mm 0 W/m2
02:07 65.5 °F /  18.6 °C 59.5 °F /  15.3 °C 30.1in /  1020.0hPa Calm     81% 0in /  0.0mm 0 W/m2
02:12 65.7 °F /  18.7 °C 59.7 °F /  15.4 °C 30.1in /  1020.0hPa Calm     81% 0in /  0.0mm 0 W/m2
02:17 65.8 °F /  18.8 °C 59.9 °F /  15.5 °C 30.1in /  1020.0hPa Calm     81% 0in /  0.0mm 0 W/m2
02:22 65.8 °F /  18.8 °C 59.9 °F /  15.5 °C 30.1in /  1020.0hPa Calm   2mph /  3.2km/h 81% 0in /  0.0mm 0 W/m2
02:27 65.8 °F /  18.8 °C 59.9 °F /  15.5 °C 30.1in /  1020.0hPa WSW 2mph /  3.2km/h 3mph /  4.8km/h 81% 0in /  0.0mm 0 W/m2
02:32 66.4 °F /  19.1 °C 60.4 °F /  15.8 °C 30.1in /  1020.0hPa Calm   2mph /  3.2km/h 81% 0in /  0.0mm 0 W/m2
02:37 66.9 °F /  19.4 °C 60.6 °F /  15.9 °C 30.1in /  1020.0hPa NW 0.9mph /  1.4km/h 3mph /  4.8km/h 80% 0in /  0.0mm 0 W/m2
02:42 67.3 °F /  19.6 °C 60.6 °F /  15.9 °C 30.1in /  1020.0hPa NW 2.9mph /  4.7km/h 6mph /  9.7km/h 79% 0in /  0.0mm 0 W/m2
02:47 67.6 °F /  19.8 °C 61 °F /  16.1 °C 30.1in /  1020.0hPa NNE 2.9mph /  4.7km/h 3mph /  4.8km/h 79% 0in /  0.0mm 0 W/m2
02:52 67.8 °F /  19.9 °C 61 °F /  16.1 °C 30.1in /  1020.0hPa West 0.9mph /  1.4km/h 5mph /  8km/h 79% 0in /  0.0mm 0 W/m2
02:57 67.8 °F /  19.9 °C 61 °F /  16.1 °C 30.1in /  1020.0hPa West 4mph /  6.4km/h 4mph /  6.4km/h 79% 0in /  0.0mm 0 W/m2
03:02 67.8 °F /  19.9 °C 61 °F /  16.1 °C 30.1in /  1020.0hPa West 2mph /  3.2km/h 3mph /  4.8km/h 79% 0in /  0.0mm 0 W/m2
03:07 67.8 °F /  19.9 °C 61 °F /  16.1 °C 30.1in /  1020.0hPa Calm   2mph /  3.2km/h 79% 0in /  0.0mm 0 W/m2
03:12 67.8 °F /  19.9 °C 61 °F /  16.1 °C 30.1in /  1020.0hPa Calm   2mph /  3.2km/h 79% 0in /  0.0mm 0 W/m2
03:17 67.8 °F /  19.9 °C 61 °F /  16.1 °C 30.1in /  1020.0hPa NNW 0.9mph /  1.4km/h 2mph /  3.2km/h 79% 0in /  0.0mm 0 W/m2
03:22 67.6 °F /  19.8 °C 61.2 °F /  16.2 °C 30.1in /  1020.0hPa Calm   3mph /  4.8km/h 80% 0in /  0.0mm 0 W/m2
03:27 67.6 °F /  19.8 °C 61.2 °F /  16.2 °C 30.1in /  1020.0hPa NW 2mph /  3.2km/h 4mph /  6.4km/h 80% 0in /  0.0mm 0 W/m2
03:32 67.6 °F /  19.8 °C 61.2 °F /  16.2 °C 30.1in /  1020.0hPa NW 2.9mph /  4.7km/h 6mph /  9.7km/h 80% 0in /  0.0mm 0 W/m2
03:37 67.6 °F /  19.8 °C 61.2 °F /  16.2 °C 30.1in /  1020.0hPa NW 2mph /  3.2km/h 4mph /  6.4km/h 80% 0in /  0.0mm 0 W/m2
03:42 67.6 °F /  19.8 °C 61.2 °F /  16.2 °C 30.1in /  1020.0hPa WNW 0.9mph /  1.4km/h 3mph /  4.8km/h 80% 0in /  0.0mm 0 W/m2
03:47 67.6 °F /  19.8 °C 61.5 °F /  16.4 °C 30.1in /  1020.0hPa WNW 2mph /  3.2km/h 3mph /  4.8km/h 81% 0in /  0.0mm 0 W/m2
03:52 67.6 °F /  19.8 °C 61.5 °F /  16.4 °C 30.1in /  1020.0hPa NW 0.9mph /  1.4km/h 3mph /  4.8km/h 81% 0in /  0.0mm 0 W/m2
03:57 67.5 °F /  19.7 °C 61.3 °F /  16.3 °C 30.1in /  1020.0hPa West 2mph /  3.2km/h 3mph /  4.8km/h 81% 0in /  0.0mm 0 W/m2
04:03 67.3 °F /  19.6 °C 61.2 °F /  16.2 °C 30.1in /  1020.0hPa West 0.9mph /  1.4km/h 2mph /  3.2km/h 81% 0in /  0.0mm 0 W/m2
04:08 67.1 °F /  19.5 °C 61.2 °F /  16.2 °C 30.1in /  1020.0hPa West 2mph /  3.2km/h 3mph /  4.8km/h 81% 0in /  0.0mm 0 W/m2
04:13 66.9 °F /  19.4 °C 61.2 °F /  16.2 °C 30.1in /  1020.0hPa West 2mph /  3.2km/h 6mph /  9.7km/h 82% 0in /  0.0mm 0 W/m2
04:18 67.1 °F /  19.5 °C 61.3 °F /  16.3 °C 30.1in /  1020.0hPa Calm   2mph /  3.2km/h 82% 0in /  0.0mm 0 W/m2
04:23 67.3 °F /  19.6 °C 61.5 °F /  16.4 °C 30.1in /  1020.0hPa NW 4mph /  6.4km/h 4mph /  6.4km/h 82% 0in /  0.0mm 0 W/m2
04:28 67.3 °F /  19.6 °C 61.5 °F /  16.4 °C 30.1in /  1020.0hPa WNW 0.9mph /  1.4km/h 2mph /  3.2km/h 82% 0in /  0.0mm 0 W/m2
04:33 67.1 °F /  19.5 °C 61.3 °F /  16.3 °C 30.1in /  1019.6hPa NNW 2mph /  3.2km/h 4mph /  6.4km/h 82% 0in /  0.0mm 0 W/m2
04:38 66.9 °F /  19.4 °C 61.2 °F /  16.2 °C 30.1in /  1020.0hPa West 2.9mph /  4.7km/h 3mph /  4.8km/h 82% 0in /  0.0mm 0 W/m2
04:43 66.9 °F /  19.4 °C 61.5 °F /  16.4 °C 30.1in /  1020.0hPa West 2mph /  3.2km/h 3mph /  4.8km/h 83% 0in /  0.0mm 0 W/m2
04:48 66.9 °F /  19.4 °C 61.5 °F /  16.4 °C 30.1in /  1019.6hPa North 2mph /  3.2km/h 4mph /  6.4km/h 83% 0in /  0.0mm 0 W/m2
04:53 66.7 °F /  19.3 °C 61.3 °F /  16.3 °C 30.1in /  1019.6hPa NW 2mph /  3.2km/h 5mph /  8km/h 83% 0in /  0.0mm 0 W/m2
04:58 66.7 °F /  19.3 °C 61.7 °F /  16.5 °C 30.1in /  1019.6hPa WNW 0.9mph /  1.4km/h 7mph /  11.3km/h 84% 0in /  0.0mm 0 W/m2
05:04 66.7 °F /  19.3 °C 61.7 °F /  16.5 °C 30.1in /  1019.6hPa Calm   4mph /  6.4km/h 84% 0in /  0.0mm 0 W/m2
05:09 66.7 °F /  19.3 °C 61.7 °F /  16.5 °C 30.1in /  1019.6hPa WNW 0.9mph /  1.4km/h 7mph /  11.3km/h 84% 0in /  0.0mm 0 W/m2
05:14 66.7 °F /  19.3 °C 61.7 °F /  16.5 °C 30.1in /  1019.6hPa Calm     84% 0in /  0.0mm 0 W/m2
05:19 66.6 °F /  19.2 °C 61.5 °F /  16.4 °C 30.1in /  1019.3hPa NW 0.9mph /  1.4km/h 4mph /  6.4km/h 84% 0in /  0.0mm 0 W/m2
05:24 66.6 °F /  19.2 °C 61.5 °F /  16.4 °C 30.1in /  1019.6hPa Calm   1mph /  1.6km/h 84% 0in /  0.0mm 0 W/m2
05:29 66.4 °F /  19.1 °C 61.3 °F /  16.3 °C 30.1in /  1019.3hPa Calm     84% 0in /  0.0mm 0 W/m2
05:34 66.4 °F /  19.1 °C 61.7 °F /  16.5 °C 30.1in /  1019.3hPa Calm     85% 0in /  0.0mm 0 W/m2
05:39 66 °F /  18.9 °C 61.3 °F /  16.3 °C 30.1in /  1019.6hPa Calm   1mph /  1.6km/h 85% 0in /  0.0mm 0 W/m2
05:44 65.8 °F /  18.8 °C 61.2 °F /  16.2 °C 30.1in /  1019.6hPa Calm     85% 0in /  0.0mm 0 W/m2
05:49 65.8 °F /  18.8 °C 61.5 °F /  16.4 °C 30.1in /  1019.6hPa ENE 0.9mph /  1.4km/h 1mph /  1.6km/h 86% 0in /  0.0mm 0 W/m2
05:54 65.7 °F /  18.7 °C 61.3 °F /  16.3 °C 30.1in /  1019.6hPa North 0.9mph /  1.4km/h 4mph /  6.4km/h 86% 0in /  0.0mm 0 W/m2
05:59 65.7 °F /  18.7 °C 61.3 °F /  16.3 °C 30.1in /  1019.6hPa Calm   2mph /  3.2km/h 86% 0in /  0.0mm 0 W/m2
06:04 65.7 °F /  18.7 °C 61.3 °F /  16.3 °C 30.1in /  1019.6hPa NNW 0.9mph /  1.4km/h 4mph /  6.4km/h 86% 0in /  0.0mm 0 W/m2
06:09 65.5 °F /  18.6 °C 61.2 °F /  16.2 °C 30.1in /  1019.6hPa Calm   3mph /  4.8km/h 86% 0in /  0.0mm 0 W/m2
06:14 65.5 °F /  18.6 °C 61.2 °F /  16.2 °C 30.1in /  1019.6hPa NNE 2.9mph /  4.7km/h 3mph /  4.8km/h 86% 0in /  0.0mm 0 W/m2
06:20 65.3 °F /  18.5 °C 61 °F /  16.1 °C 30.1in /  1019.6hPa Calm   2mph /  3.2km/h 86% 0in /  0.0mm 0 W/m2
06:25 65.1 °F /  18.4 °C 60.8 °F /  16 °C 30.1in /  1019.6hPa SSW 0.9mph /  1.4km/h 1mph /  1.6km/h 86% 0in /  0.0mm 0 W/m2
06:30 65.1 °F /  18.4 °C 60.8 °F /  16 °C 30.1in /  1019.6hPa NE 0.9mph /  1.4km/h 2mph /  3.2km/h 86% 0in /  0.0mm 0 W/m2
06:35 65.1 °F /  18.4 °C 60.8 °F /  16 °C 30.1in /  1019.6hPa Calm   2mph /  3.2km/h 86% 0in /  0.0mm 0 W/m2
06:40 64.9 °F /  18.3 °C 60.6 °F /  15.9 °C 30.1in /  1019.6hPa East 0.9mph /  1.4km/h 5mph /  8km/h 86% 0in /  0.0mm 0 W/m2
06:45 64.9 °F /  18.3 °C 60.6 °F /  15.9 °C 30.1in /  1019.6hPa WNW 0.9mph /  1.4km/h 2mph /  3.2km/h 86% 0in /  0.0mm 0 W/m2
06:50 64.9 °F /  18.3 °C 61 °F /  16.1 °C 30.1in /  1019.6hPa Calm   5mph /  8km/h 87% 0in /  0.0mm 0 W/m2
06:55 64.9 °F /  18.3 °C 61 °F /  16.1 °C 30.1in /  1019.6hPa North 0.9mph /  1.4km/h 4mph /  6.4km/h 87% 0in /  0.0mm 0 W/m2
07:00 64.8 °F /  18.2 °C 60.8 °F /  16 °C 30.1in /  1019.6hPa SSE 2mph /  3.2km/h 2mph /  3.2km/h 87% 0in /  0.0mm 0 W/m2
07:05 64.8 °F /  18.2 °C 60.8 °F /  16 °C 30.1in /  1019.6hPa Calm   4mph /  6.4km/h 87% 0in /  0.0mm 0 W/m2
07:10 64.8 °F /  18.2 °C 60.8 °F /  16 °C 30.1in /  1019.6hPa WNW 2mph /  3.2km/h 5mph /  8km/h 87% 0in /  0.0mm 0 W/m2
07:15 64.8 °F /  18.2 °C 60.8 °F /  16 °C 30.1in /  1019.6hPa SSW 4mph /  6.4km/h 4mph /  6.4km/h 87% 0in /  0.0mm 0 W/m2
07:20 64.6 °F /  18.1 °C 60.6 °F /  15.9 °C 30.1in /  1019.6hPa NE 0.9mph /  1.4km/h 2mph /  3.2km/h 87% 0in /  0.0mm 0 W/m2
07:25 64.6 °F /  18.1 °C 60.6 °F /  15.9 °C 30.1in /  1019.6hPa NE 2mph /  3.2km/h 4mph /  6.4km/h 87% 0in /  0.0mm 0 W/m2
07:30 64.6 °F /  18.1 °C 60.3 °F /  15.7 °C 30.1in /  1020.0hPa East 0.9mph /  1.4km/h 6mph /  9.7km/h 86% 0in /  0.0mm 0 W/m2
07:35 64.6 °F /  18.1 °C 60.3 °F /  15.7 °C 30.1in /  1020.0hPa Calm   2mph /  3.2km/h 86% 0in /  0.0mm 0 W/m2
07:40 64.4 °F /  18 °C 60.1 °F /  15.6 °C 30.1in /  1019.6hPa ENE 2mph /  3.2km/h 6mph /  9.7km/h 86% 0in /  0.0mm 0 W/m2
07:45 64.4 °F /  18 °C 60.1 °F /  15.6 °C 30.1in /  1020.0hPa East 0.9mph /  1.4km/h 2mph /  3.2km/h 86% 0in /  0.0mm 5 W/m2
07:50 64.2 °F /  17.9 °C 60.3 °F /  15.7 °C 30.1in /  1020.0hPa ENE 2mph /  3.2km/h 4mph /  6.4km/h 87% 0in /  0.0mm 5 W/m2
07:55 64.2 °F /  17.9 °C 60.3 °F /  15.7 °C 30.1in /  1020.0hPa NW 0.9mph /  1.4km/h 2mph /  3.2km/h 87% 0in /  0.0mm 5 W/m2
08:00 64 °F /  17.8 °C 60.1 °F /  15.6 °C 30.1in /  1020.0hPa North 0.9mph /  1.4km/h 3mph /  4.8km/h 87% 0in /  0.0mm 5 W/m2
08:05 64 °F /  17.8 °C 59.7 °F /  15.4 °C 30.1in /  1020.0hPa Calm   1mph /  1.6km/h 86% 0in /  0.0mm 5 W/m2
08:10 63.9 °F /  17.7 °C 59.9 °F /  15.5 °C 30.1in /  1020.0hPa NW 2mph /  3.2km/h 3mph /  4.8km/h 87% 0in /  0.0mm 0 W/m2
08:15 63.7 °F /  17.6 °C 59.7 °F /  15.4 °C 30.1in /  1020.3hPa Calm   2mph /  3.2km/h 87% 0in /  0.0mm 5 W/m2
08:20 63.5 °F /  17.5 °C 59.5 °F /  15.3 °C 30.1in /  1020.3hPa West 2mph /  3.2km/h 4mph /  6.4km/h 87% 0in /  0.0mm 7 W/m2
08:25 63.3 °F /  17.4 °C 59.7 °F /  15.4 °C 30.1in /  1020.3hPa Calm   5mph /  8km/h 88% 0.01in /  0.2mm 5 W/m2
08:30 63 °F /  17.2 °C 59.7 °F /  15.4 °C 30.1in /  1020.3hPa NE 0.9mph /  1.4km/h 3mph /  4.8km/h 89% 0.02in /  0.5mm 5 W/m2
08:35 62.6 °F /  17 °C 59.4 °F /  15.2 °C 30.1in /  1020.3hPa North 0.9mph /  1.4km/h 5mph /  8km/h 89% 0.02in /  0.5mm 7 W/m2
08:40 62.4 °F /  16.9 °C 59.4 °F /  15.2 °C 30.1in /  1020.7hPa ESE 0.9mph /  1.4km/h 4mph /  6.4km/h 90% 0.02in /  0.5mm 11 W/m2
08:45 62.1 °F /  16.7 °C 59.4 °F /  15.2 °C 30.1in /  1020.7hPa ENE 0.9mph /  1.4km/h 4mph /  6.4km/h 91% 0.02in /  0.5mm 14 W/m2
08:50 61.9 °F /  16.6 °C 59.2 °F /  15.1 °C 30.1in /  1020.7hPa North 0.9mph /  1.4km/h 3mph /  4.8km/h 91% 0.02in /  0.5mm 19 W/m2
08:55 61.7 °F /  16.5 °C 59 °F /  15 °C 30.1in /  1020.7hPa Calm   2mph /  3.2km/h 91% 0.03in /  0.8mm 19 W/m2
09:00 61.5 °F /  16.4 °C 59.2 °F /  15.1 °C 30.1in /  1020.7hPa Calm   1mph /  1.6km/h 92% 0.03in /  0.8mm 19 W/m2
09:05 61.5 °F /  16.4 °C 59.2 °F /  15.1 °C 30.1in /  1020.7hPa ESE 0.9mph /  1.4km/h 2mph /  3.2km/h 92% 0.04in /  1.0mm 16 W/m2
09:10 61.3 °F /  16.3 °C 59 °F /  15 °C 30.1in /  1020.7hPa Calm   3mph /  4.8km/h 92% 0.05in /  1.3mm 18 W/m2
09:15 61.2 °F /  16.2 °C 58.8 °F /  14.9 °C 30.1in /  1020.7hPa North 0.9mph /  1.4km/h 3mph /  4.8km/h 92% 0.06in /  1.5mm 19 W/m2
09:20 61.2 °F /  16.2 °C 59.2 °F /  15.1 °C 30.1in /  1020.7hPa Calm   1mph /  1.6km/h 93% 0.06in /  1.5mm 23 W/m2
09:25 61 °F /  16.1 °C 59 °F /  15 °C 30.2in /  1021.0hPa Calm   1mph /  1.6km/h 93% 0.06in /  1.5mm 23 W/m2
09:31 61 °F /  16.1 °C 59 °F /  15 °C 30.2in /  1021.0hPa WNW 0.9mph /  1.4km/h 2mph /  3.2km/h 93% 0.05in /  1.3mm 23 W/m2
09:36 61 °F /  16.1 °C 59 °F /  15 °C 30.2in /  1021.0hPa NNE 2mph /  3.2km/h 2mph /  3.2km/h 93% 0.06in /  1.5mm 26 W/m2
09:41 61 °F /  16.1 °C 59 °F /  15 °C 30.2in /  1021.0hPa NNW 0.9mph /  1.4km/h 1mph /  1.6km/h 93% 0.05in /  1.3mm 30 W/m2
09:46 60.8 °F /  16 °C 58.8 °F /  14.9 °C 30.2in /  1021.0hPa West 2.9mph /  4.7km/h 3mph /  4.8km/h 93% 0.06in /  1.5mm 30 W/m2
09:51 60.8 °F /  16 °C 58.8 °F /  14.9 °C 30.2in /  1021.0hPa West 0.9mph /  1.4km/h 2mph /  3.2km/h 93% 0.06in /  1.5mm 32 W/m2
09:56 61 °F /  16.1 °C 59.2 °F /  15.1 °C 30.2in /  1021.0hPa West 0.9mph /  1.4km/h 1mph /  1.6km/h 94% 0.05in /  1.3mm 39 W/m2
10:01 61 °F /  16.1 °C 59.2 °F /  15.1 °C 30.2in /  1021.0hPa Calm   1mph /  1.6km/h 94% 0.05in /  1.3mm 63 W/m2
10:06 61 °F /  16.1 °C 59.2 °F /  15.1 °C 30.2in /  1021.0hPa NE 2mph /  3.2km/h 3mph /  4.8km/h 94% 0.04in /  1.0mm 84 W/m2
10:11 61 °F /  16.1 °C 59.2 °F /  15.1 °C 30.2in /  1021.0hPa East 0.9mph /  1.4km/h 2mph /  3.2km/h 94% 0.03in /  0.8mm 90 W/m2
10:16 61.2 °F /  16.2 °C 59.4 °F /  15.2 °C 30.2in /  1021.0hPa Calm   2mph /  3.2km/h 94% 0.02in /  0.5mm 88 W/m2
10:21 61.2 °F /  16.2 °C 59.4 °F /  15.2 °C 30.2in /  1021.0hPa ENE 0.9mph /  1.4km/h 2mph /  3.2km/h 94% 0.02in /  0.5mm 100 W/m2
10:26 61.3 °F /  16.3 °C 59.5 °F /  15.3 °C 30.2in /  1021.0hPa East 0.9mph /  1.4km/h 2mph /  3.2km/h 94% 0.02in /  0.5mm 113 W/m2
10:31 61.5 °F /  16.4 °C 59.7 °F /  15.4 °C 30.2in /  1021.0hPa Calm     94% 0.02in /  0.5mm 128 W/m2
10:36 61.7 °F /  16.5 °C 59.9 °F /  15.5 °C 30.2in /  1021.0hPa Calm   2mph /  3.2km/h 94% 0.01in /  0.2mm 123 W/m2
10:41 62.1 °F /  16.7 °C 60.3 °F /  15.7 °C 30.2in /  1021.0hPa Calm   1mph /  1.6km/h 94% 0.01in /  0.2mm 114 W/m2
10:46 62.2 °F /  16.8 °C 60.4 °F /  15.8 °C 30.2in /  1021.0hPa East 2mph /  3.2km/h 2mph /  3.2km/h 94% 0in /  0.0mm 120 W/m2
10:51 62.4 °F /  16.9 °C 60.6 °F /  15.9 °C 30.1in /  1020.7hPa ESE 0.9mph /  1.4km/h 3mph /  4.8km/h 94% 0.01in /  0.2mm 116 W/m2
10:56 62.6 °F /  17 °C 60.8 °F /  16 °C 30.2in /  1021.0hPa East 0.9mph /  1.4km/h 2mph /  3.2km/h 94% 0.01in /  0.2mm 137 W/m2
11:01 62.8 °F /  17.1 °C 60.8 °F /  16 °C 30.1in /  1020.7hPa East 2.9mph /  4.7km/h 3mph /  4.8km/h 93% 0.01in /  0.2mm 163 W/m2
11:06 63 °F /  17.2 °C 61 °F /  16.1 °C 30.1in /  1020.7hPa ENE 0.9mph /  1.4km/h 2mph /  3.2km/h 93% 0.01in /  0.2mm 169 W/m2
11:11 63.1 °F /  17.3 °C 61.2 °F /  16.2 °C 30.1in /  1020.7hPa ESE 0.9mph /  1.4km/h 2mph /  3.2km/h 93% 0.01in /  0.2mm 155 W/m2
11:16 63.3 °F /  17.4 °C 61.3 °F /  16.3 °C 30.1in /  1020.7hPa NE 2mph /  3.2km/h 3mph /  4.8km/h 93% 0.01in /  0.2mm 190 W/m2
11:21 63.7 °F /  17.6 °C 61.7 °F /  16.5 °C 30.1in /  1020.7hPa East 0.9mph /  1.4km/h 3mph /  4.8km/h 93% 0.01in /  0.2mm 232 W/m2
11:26 63.9 °F /  17.7 °C 61.5 °F /  16.4 °C 30.1in /  1020.7hPa ENE 2.9mph /  4.7km/h 4mph /  6.4km/h 92% 0.01in /  0.2mm 206 W/m2
11:35 64 °F /  17.8 °C 61.3 °F /  16.3 °C 30.2in /  1021.0hPa SE 2mph /  3.2km/h 3mph /  4.8km/h 91% 0.01in /  0.2mm 253 W/m2
11:41 64 °F /  17.8 °C 61 °F /  16.1 °C 30.2in /  1021.0hPa NE 0.9mph /  1.4km/h 4mph /  6.4km/h 90% 0.01in /  0.2mm 287 W/m2
11:46 64.4 °F /  18 °C 61.3 °F /  16.3 °C 30.1in /  1020.7hPa ENE 2.9mph /  4.7km/h 4mph /  6.4km/h 90% 0.01in /  0.2mm 388 W/m2
11:51 64.6 °F /  18.1 °C 61.5 °F /  16.4 °C 30.1in /  1020.7hPa East 2mph /  3.2km/h 4mph /  6.4km/h 90% 0in /  0.0mm 295 W/m2
11:56 64.9 °F /  18.3 °C 61.7 °F /  16.5 °C 30.1in /  1020.7hPa ESE 2mph /  3.2km/h 4mph /  6.4km/h 89% 0in /  0.0mm 431 W/m2
12:01 65.1 °F /  18.4 °C 61.5 °F /  16.4 °C 30.1in /  1020.7hPa East 2mph /  3.2km/h 4mph /  6.4km/h 88% 0in /  0.0mm 325 W/m2
12:06 65.7 °F /  18.7 °C 62.1 °F /  16.7 °C 30.1in /  1020.7hPa Calm   2mph /  3.2km/h 88% 0in /  0.0mm 464 W/m2
12:11 66.2 °F /  19 °C 62.2 °F /  16.8 °C 30.1in /  1020.7hPa NNE 2.9mph /  4.7km/h 6mph /  9.7km/h 87% 0in /  0.0mm 780 W/m2
12:16 66.6 °F /  19.2 °C 62.2 °F /  16.8 °C 30.1in /  1020.7hPa ESE 0.9mph /  1.4km/h 3mph /  4.8km/h 86% 0in /  0.0mm 243 W/m2
12:21 66.6 °F /  19.2 °C 62.2 °F /  16.8 °C 30.1in /  1020.7hPa ENE 0.9mph /  1.4km/h 6mph /  9.7km/h 86% 0in /  0.0mm 285 W/m2
12:26 66.4 °F /  19.1 °C 61.7 °F /  16.5 °C 30.1in /  1020.7hPa NE 4.9mph /  7.9km/h 7mph /  11.3km/h 85% 0in /  0.0mm 186 W/m2
12:31 65.8 °F /  18.8 °C 60.8 °F /  16 °C 30.1in /  1020.3hPa ENE 0.9mph /  1.4km/h 3mph /  4.8km/h 84% 0in /  0.0mm 142 W/m2
12:36 65.5 °F /  18.6 °C 60.8 °F /  16 °C 30.1in /  1020.3hPa ENE 0.9mph /  1.4km/h 5mph /  8km/h 85% 0in /  0.0mm 202 W/m2
12:41 65.5 °F /  18.6 °C 61.2 °F /  16.2 °C 30.1in /  1020.3hPa NNW 4mph /  6.4km/h 4mph /  6.4km/h 86% 0in /  0.0mm 151 W/m2
12:46 65.5 °F /  18.6 °C 61.2 °F /  16.2 °C 30.1in /  1020.3hPa NE 0.9mph /  1.4km/h 5mph /  8km/h 86% 0in /  0.0mm 130 W/m2
12:51 65.5 °F /  18.6 °C 61.2 °F /  16.2 °C 30.1in /  1020.3hPa East 0.9mph /  1.4km/h 3mph /  4.8km/h 86% 0in /  0.0mm 148 W/m2
12:56 65.5 °F /  18.6 °C 61.2 °F /  16.2 °C 30.1in /  1020.3hPa East 4mph /  6.4km/h 4mph /  6.4km/h 86% 0in /  0.0mm 153 W/m2
13:06 66 °F /  18.9 °C 61.7 °F /  16.5 °C 30.1in /  1020.3hPa ESE 0.9mph /  1.4km/h 1mph /  1.6km/h 86% 0in /  0.0mm 524 W/m2
13:12 66.6 °F /  19.2 °C 61.5 °F /  16.4 °C 30.1in /  1020.3hPa ESE 2.9mph /  4.7km/h 4mph /  6.4km/h 84% 0in /  0.0mm 346 W/m2
13:17 66.7 °F /  19.3 °C 61.3 °F /  16.3 °C 30.1in /  1020.0hPa East 0.9mph /  1.4km/h 4mph /  6.4km/h 83% 0in /  0.0mm 294 W/m2
13:22 67.1 °F /  19.5 °C 61.7 °F /  16.5 °C 30.1in /  1020.0hPa Calm   1mph /  1.6km/h 83% 0in /  0.0mm 320 W/m2
13:27 67.3 °F /  19.6 °C 61.5 °F /  16.4 °C 30.1in /  1020.0hPa NE 2mph /  3.2km/h 4mph /  6.4km/h 82% 0in /  0.0mm 308 W/m2
13:32 67.6 °F /  19.8 °C 61.9 °F /  16.6 °C 30.1in /  1020.0hPa ENE 2mph /  3.2km/h 4mph /  6.4km/h 82% 0in /  0.0mm 348 W/m2
13:37 67.8 °F /  19.9 °C 61.7 °F /  16.5 °C 30.1in /  1019.6hPa ENE 2.9mph /  4.7km/h 3mph /  4.8km/h 81% 0in /  0.0mm 378 W/m2
13:41 68.2 °F /  20.1 °C 61.7 °F /  16.5 °C 30.1in /  1020.0hPa ENE 2.9mph /  4.7km/h 2mph /  3.2km/h 80% 0in /  0.0mm 334 W/m2
13:46 68.4 °F /  20.2 °C 61.5 °F /  16.4 °C 30.1in /  1019.6hPa East 0.9mph /  1.4km/h 3mph /  4.8km/h 79% 0in /  0.0mm 313 W/m2
13:52 68.4 °F /  20.2 °C 61.9 °F /  16.6 °C 30.1in /  1019.6hPa NE 2mph /  3.2km/h 2mph /  3.2km/h 80% 0in /  0.0mm 462 W/m2
13:57 68.4 °F /  20.2 °C 61.9 °F /  16.6 °C 30.1in /  1019.6hPa Calm   3mph /  4.8km/h 80% 0in /  0.0mm 316 W/m2
14:02 68.5 °F /  20.3 °C 62.4 °F /  16.9 °C 30.1in /  1019.6hPa Calm   3mph /  4.8km/h 81% 0in /  0.0mm 355 W/m2
14:07 68.7 °F /  20.4 °C 61.9 °F /  16.6 °C 30.1in /  1019.6hPa North 4mph /  6.4km/h 5mph /  8km/h 79% 0in /  0.0mm 371 W/m2
14:12 68.9 °F /  20.5 °C 61.7 °F /  16.5 °C 30.1in /  1019.6hPa ESE 0.9mph /  1.4km/h 4mph /  6.4km/h 78% 0in /  0.0mm 366 W/m2
14:17 68.9 °F /  20.5 °C 62.4 °F /  16.9 °C 30.1in /  1019.3hPa Calm   3mph /  4.8km/h 80% 0in /  0.0mm 387 W/m2
14:21 69.3 °F /  20.7 °C 62.4 °F /  16.9 °C 30.1in /  1019.3hPa ESE 2.9mph /  4.7km/h 6mph /  9.7km/h 79% 0in /  0.0mm 390 W/m2
14:27 69.4 °F /  20.8 °C 61.9 °F /  16.6 °C 30.1in /  1019.3hPa NE 4mph /  6.4km/h 8mph /  12.9km/h 77% 0in /  0.0mm 450 W/m2
14:32 69.4 °F /  20.8 °C 62.2 °F /  16.8 °C 30.1in /  1019.3hPa Calm   1mph /  1.6km/h 78% 0in /  0.0mm 355 W/m2
14:37 69.4 °F /  20.8 °C 62.2 °F /  16.8 °C 30.1in /  1019.3hPa NNE 0.9mph /  1.4km/h 3mph /  4.8km/h 78% 0in /  0.0mm 404 W/m2
14:42 69.8 °F /  21 °C 61.9 °F /  16.6 °C 30.1in /  1019.3hPa ENE 0.9mph /  1.4km/h 3mph /  4.8km/h 76% 0in /  0.0mm 352 W/m2
14:47 70 °F /  21.1 °C 62.1 °F /  16.7 °C 30.1in /  1019.3hPa ESE 0.9mph /  1.4km/h 2mph /  3.2km/h 76% 0in /  0.0mm 462 W/m2
14:52 70.3 °F /  21.3 °C 61.7 °F /  16.5 °C 30.1in /  1019.3hPa East 0.9mph /  1.4km/h 2mph /  3.2km/h 74% 0in /  0.0mm 531 W/m2
14:57 70.5 °F /  21.4 °C 61.9 °F /  16.6 °C 30.1in /  1019.0hPa NE 2.9mph /  4.7km/h 3mph /  4.8km/h 74% 0in /  0.0mm 687 W/m2
15:02 70.9 °F /  21.6 °C 61.3 °F /  16.3 °C 30.1in /  1019.0hPa Calm   6mph /  9.7km/h 72% 0in /  0.0mm 691 W/m2
15:07 71.2 °F /  21.8 °C 61.3 °F /  16.3 °C 30.1in /  1019.0hPa Calm   3mph /  4.8km/h 71% 0in /  0.0mm 661 W/m2
15:12 71.6 °F /  22 °C 61.3 °F /  16.3 °C 30.1in /  1019.0hPa SSW 2mph /  3.2km/h 2mph /  3.2km/h 70% 0in /  0.0mm 657 W/m2
15:17 72 °F /  22.2 °C 62.1 °F /  16.7 °C 30.1in /  1019.0hPa NW 2mph /  3.2km/h 3mph /  4.8km/h 71% 0in /  0.0mm 666 W/m2
15:22 72.3 °F /  22.4 °C 62.1 °F /  16.7 °C 30.1in /  1019.0hPa NE 2.9mph /  4.7km/h 4mph /  6.4km/h 70% 0in /  0.0mm 638 W/m2
15:27 72.1 °F /  22.3 °C 61.3 °F /  16.3 °C 30.1in /  1019.0hPa WNW 0.9mph /  1.4km/h 2mph /  3.2km/h 69% 0in /  0.0mm 629 W/m2
15:32 72.7 °F /  22.6 °C 61.5 °F /  16.4 °C 30.1in /  1018.6hPa ESE 2.9mph /  4.7km/h 3mph /  4.8km/h 68% 0in /  0.0mm 557 W/m2
15:37 73 °F /  22.8 °C 61.5 °F /  16.4 °C 30.1in /  1018.6hPa East 4.9mph /  7.9km/h 5mph /  8km/h 67% 0in /  0.0mm 605 W/m2
15:42 73.2 °F /  22.9 °C 61.5 °F /  16.4 °C 30.1in /  1018.6hPa SE 4mph /  6.4km/h 4mph /  6.4km/h 67% 0in /  0.0mm 624 W/m2
15:47 73.4 °F /  23 °C 61 °F /  16.1 °C 30.1in /  1018.6hPa Calm   1mph /  1.6km/h 65% 0in /  0.0mm 622 W/m2
15:52 73.6 °F /  23.1 °C 61.5 °F /  16.4 °C 30.1in /  1018.6hPa ESE 2mph /  3.2km/h 3mph /  4.8km/h 66% 0in /  0.0mm 622 W/m2
15:57 73.8 °F /  23.2 °C 61.3 °F /  16.3 °C 30.1in /  1018.3hPa WSW 2mph /  3.2km/h 2mph /  3.2km/h 65% 0in /  0.0mm 592 W/m2
16:02 73.9 °F /  23.3 °C 61.3 °F /  16.3 °C 30.1in /  1018.3hPa East 2.9mph /  4.7km/h 3mph /  4.8km/h 65% 0in /  0.0mm 506 W/m2
16:07 74.5 °F /  23.6 °C 61.9 °F /  16.6 °C 30.1in /  1018.3hPa Calm   3mph /  4.8km/h 65% 0in /  0.0mm 591 W/m2
16:12 74.7 °F /  23.7 °C 61.2 °F /  16.2 °C 30.1in /  1018.3hPa West 0.9mph /  1.4km/h 2mph /  3.2km/h 63% 0in /  0.0mm 575 W/m2
16:17 75 °F /  23.9 °C 62.1 °F /  16.7 °C 30.1in /  1018.3hPa ENE 4mph /  6.4km/h 4mph /  6.4km/h 64% 0in /  0.0mm 531 W/m2
16:22 75 °F /  23.9 °C 61.2 °F /  16.2 °C 30.1in /  1018.0hPa East 2mph /  3.2km/h 3mph /  4.8km/h 62% 0in /  0.0mm 499 W/m2
16:27 74.7 °F /  23.7 °C 60.8 °F /  16 °C 30.1in /  1018.0hPa ESE 2.9mph /  4.7km/h 3mph /  4.8km/h 62% 0in /  0.0mm 512 W/m2
16:32 74.7 °F /  23.7 °C 61.2 °F /  16.2 °C 30.1in /  1018.0hPa ESE 0.9mph /  1.4km/h 4mph /  6.4km/h 63% 0in /  0.0mm 489 W/m2
16:37 74.8 °F /  23.8 °C 61 °F /  16.1 °C 30.1in /  1018.0hPa Calm   4mph /  6.4km/h 62% 0in /  0.0mm 202 W/m2
16:43 75.2 °F /  24 °C 61.7 °F /  16.5 °C 30.1in /  1018.0hPa East 4mph /  6.4km/h 4mph /  6.4km/h 63% 0in /  0.0mm 573 W/m2
16:48 75 °F /  23.9 °C 61.2 °F /  16.2 °C 30.1in /  1017.6hPa East 2mph /  3.2km/h 6mph /  9.7km/h 62% 0in /  0.0mm 513 W/m2
16:53 74.8 °F /  23.8 °C 61.3 °F /  16.3 °C 30.1in /  1017.6hPa West 0.9mph /  1.4km/h 2mph /  3.2km/h 63% 0in /  0.0mm 139 W/m2
16:58 74.8 °F /  23.8 °C 61.3 °F /  16.3 °C 30.1in /  1017.6hPa ESE 2.9mph /  4.7km/h 6mph /  9.7km/h 63% 0in /  0.0mm 520 W/m2
17:03 74.8 °F /  23.8 °C 61 °F /  16.1 °C 30.1in /  1017.6hPa Calm   3mph /  4.8km/h 62% 0in /  0.0mm 490 W/m2
17:08 75.4 °F /  24.1 °C 61.5 °F /  16.4 °C 30.1in /  1017.6hPa ESE 4mph /  6.4km/h 4mph /  6.4km/h 62% 0in /  0.0mm 506 W/m2
17:13 75.7 °F /  24.3 °C 61.3 °F /  16.3 °C 30in /  1017.3hPa Calm   1mph /  1.6km/h 61% 0in /  0.0mm 471 W/m2
17:18 76.3 °F /  24.6 °C 61.9 °F /  16.6 °C 30in /  1017.3hPa Calm   3mph /  4.8km/h 61% 0in /  0.0mm 457 W/m2
17:23 75.7 °F /  24.3 °C 60.4 °F /  15.8 °C 30in /  1017.3hPa NE 0.9mph /  1.4km/h 6mph /  9.7km/h 59% 0in /  0.0mm 443 W/m2
17:28 75.6 °F /  24.2 °C 60.6 °F /  15.9 °C 30in /  1017.3hPa East 2mph /  3.2km/h 3mph /  4.8km/h 60% 0in /  0.0mm 404 W/m2
17:33 75.6 °F /  24.2 °C 60.6 °F /  15.9 °C 30in /  1016.9hPa ESE 0.9mph /  1.4km/h 6mph /  9.7km/h 60% 0in /  0.0mm 373 W/m2
17:38 75.9 °F /  24.4 °C 61 °F /  16.1 °C 30in /  1016.9hPa Calm   1mph /  1.6km/h 60% 0in /  0.0mm 369 W/m2
17:43 76.5 °F /  24.7 °C 62.1 °F /  16.7 °C 30in /  1016.9hPa SE 2mph /  3.2km/h 3mph /  4.8km/h 61% 0in /  0.0mm 348 W/m2
17:48 76.6 °F /  24.8 °C 61.7 °F /  16.5 °C 30in /  1016.9hPa ESE 2.9mph /  4.7km/h 4mph /  6.4km/h 60% 0in /  0.0mm 339 W/m2
17:53 76.5 °F /  24.7 °C 62.1 °F /  16.7 °C 30in /  1016.9hPa ENE 2mph /  3.2km/h 2mph /  3.2km/h 61% 0in /  0.0mm 325 W/m2
17:59 76.3 °F /  24.6 °C 61.9 °F /  16.6 °C 30in /  1016.9hPa Calm   4mph /  6.4km/h 61% 0in /  0.0mm 313 W/m2
18:04 75.9 °F /  24.4 °C 61.9 °F /  16.6 °C 30in /  1016.9hPa ENE 0.9mph /  1.4km/h 3mph /  4.8km/h 62% 0in /  0.0mm 295 W/m2
18:09 75.7 °F /  24.3 °C 61.3 °F /  16.3 °C 30in /  1016.9hPa ESE 0.9mph /  1.4km/h 2mph /  3.2km/h 61% 0in /  0.0mm 253 W/m2
18:14 75.7 °F /  24.3 °C 61.3 °F /  16.3 °C 30in /  1016.9hPa Calm   3mph /  4.8km/h 61% 0in /  0.0mm 206 W/m2
18:19 75.7 °F /  24.3 °C 61.3 °F /  16.3 °C 30in /  1016.9hPa ENE 2mph /  3.2km/h 2mph /  3.2km/h 61% 0in /  0.0mm 269 W/m2
18:24 75.9 °F /  24.4 °C 61.5 °F /  16.4 °C 30in /  1016.9hPa Calm   3mph /  4.8km/h 61% 0in /  0.0mm 232 W/m2
18:29 75.7 °F /  24.3 °C 61.9 °F /  16.6 °C 30in /  1016.6hPa Calm   2mph /  3.2km/h 62% 0in /  0.0mm 84 W/m2
18:34 75.4 °F /  24.1 °C 61.9 °F /  16.6 °C 30in /  1016.6hPa Calm     63% 0in /  0.0mm 221 W/m2
18:39 75 °F /  23.9 °C 61.5 °F /  16.4 °C 30in /  1016.6hPa SSE 0.9mph /  1.4km/h 2mph /  3.2km/h 63% 0in /  0.0mm 202 W/m2
18:44 74.8 °F /  23.8 °C 61.9 °F /  16.6 °C 30in /  1016.6hPa Calm     64% 0in /  0.0mm 149 W/m2
18:49 74.7 °F /  23.7 °C 62.1 °F /  16.7 °C 30in /  1016.6hPa Calm   1mph /  1.6km/h 65% 0in /  0.0mm 98 W/m2
18:54 74.5 °F /  23.6 °C 61 °F /  16.1 °C 30in /  1016.6hPa SW 0.9mph /  1.4km/h 2mph /  3.2km/h 63% 0in /  0.0mm 144 W/m2
18:59 74.1 °F /  23.4 °C 61.2 °F /  16.2 °C 30in /  1016.6hPa Calm   1mph /  1.6km/h 64% 0in /  0.0mm 72 W/m2
19:04 73.8 °F /  23.2 °C 61.3 °F /  16.3 °C 30in /  1016.6hPa Calm   3mph /  4.8km/h 65% 0in /  0.0mm 63 W/m2
19:09 73.2 °F /  22.9 °C 61.5 °F /  16.4 °C 30in /  1016.6hPa Calm     67% 0in /  0.0mm 54 W/m2
19:14 73 °F /  22.8 °C 61.9 °F /  16.6 °C 30in /  1016.3hPa Calm   3mph /  4.8km/h 68% 0in /  0.0mm 42 W/m2
19:19 72.5 °F /  22.5 °C 61.7 °F /  16.5 °C 30in /  1016.3hPa Calm     69% 0in /  0.0mm 32 W/m2
19:24 72 °F /  22.2 °C 61.2 °F /  16.2 °C 30in /  1016.3hPa Calm   1mph /  1.6km/h 69% 0in /  0.0mm 26 W/m2
19:29 71.4 °F /  21.9 °C 61.5 °F /  16.4 °C 30in /  1016.3hPa Calm     71% 0in /  0.0mm 23 W/m2
19:34 71.1 °F /  21.7 °C 61.2 °F /  16.2 °C 30in /  1016.3hPa Calm     71% 0in /  0.0mm 21 W/m2
19:39 70.3 °F /  21.3 °C 60.8 °F /  16 °C 30in /  1016.3hPa Calm     72% 0in /  0.0mm 16 W/m2
19:45 70 °F /  21.1 °C 61 °F /  16.1 °C 30in /  1016.3hPa Calm     73% 0in /  0.0mm 12 W/m2
19:50 69.4 °F /  20.8 °C 60.8 °F /  16 °C 30in /  1016.3hPa Calm     74% 0in /  0.0mm 7 W/m2
19:55 69.1 °F /  20.6 °C 60.8 °F /  16 °C 30in /  1016.3hPa Calm     75% 0in /  0.0mm 5 W/m2
20:00 68.5 °F /  20.3 °C 60.6 °F /  15.9 °C 30in /  1016.6hPa Calm     76% 0in /  0.0mm 0 W/m2
20:05 68.2 °F /  20.1 °C 60.6 °F /  15.9 °C 30in /  1016.6hPa Calm     77% 0in /  0.0mm 0 W/m2
20:10 67.8 °F /  19.9 °C 60.6 °F /  15.9 °C 30in /  1016.6hPa Calm     78% 0in /  0.0mm 0 W/m2
20:15 67.5 °F /  19.7 °C 60.4 °F /  15.8 °C 30in /  1016.6hPa Calm     78% 0in /  0.0mm 0 W/m2
20:20 67.3 °F /  19.6 °C 60.6 °F /  15.9 °C 30in /  1016.6hPa Calm     79% 0in /  0.0mm 0 W/m2
20:25 66.9 °F /  19.4 °C 60.6 °F /  15.9 °C 30in /  1016.6hPa Calm     80% 0in /  0.0mm 0 W/m2
20:30 66.7 °F /  19.3 °C 60.4 °F /  15.8 °C 30in /  1016.6hPa Calm     80% 0in /  0.0mm 0 W/m2
20:35 66.4 °F /  19.1 °C 60.1 °F /  15.6 °C 30in /  1016.6hPa Calm     80% 0in /  0.0mm 0 W/m2
20:40 66.2 °F /  19 °C 60.3 °F /  15.7 °C 30in /  1016.6hPa Calm     81% 0in /  0.0mm 0 W/m2
20:45 66 °F /  18.9 °C 60.1 °F /  15.6 °C 30in /  1016.6hPa Calm     81% 0in /  0.0mm 0 W/m2
20:50 65.8 °F /  18.8 °C 59.9 °F /  15.5 °C 30in /  1016.6hPa Calm     81% 0in /  0.0mm 0 W/m2
20:55 65.5 °F /  18.6 °C 59.9 °F /  15.5 °C 30in /  1016.6hPa Calm     82% 0in /  0.0mm 0 W/m2
21:00 65.3 °F /  18.5 °C 59.7 °F /  15.4 °C 30in /  1016.6hPa Calm     82% 0in /  0.0mm 0 W/m2
21:05 64.9 °F /  18.3 °C 59.7 °F /  15.4 °C 30in /  1016.6hPa Calm     83% 0in /  0.0mm 0 W/m2
21:10 64.8 °F /  18.2 °C 59.5 °F /  15.3 °C 30in /  1016.6hPa Calm     83% 0in /  0.0mm 0 W/m2
21:15 64.4 °F /  18 °C 59.2 °F /  15.1 °C 30in /  1016.9hPa Calm     83% 0in /  0.0mm 0 W/m2
21:20 64 °F /  17.8 °C 58.8 °F /  14.9 °C 30in /  1016.9hPa Calm     83% 0in /  0.0mm 0 W/m2
21:25 63.9 °F /  17.7 °C 59 °F /  15 °C 30in /  1016.9hPa Calm     84% 0in /  0.0mm 0 W/m2
21:30 63.7 °F /  17.6 °C 58.8 °F /  14.9 °C 30in /  1016.9hPa Calm     84% 0in /  0.0mm 0 W/m2
21:35 63.3 °F /  17.4 °C 58.8 °F /  14.9 °C 30in /  1016.9hPa Calm     85% 0in /  0.0mm 0 W/m2
21:40 63 °F /  17.2 °C 58.5 °F /  14.7 °C 30in /  1016.9hPa Calm     85% 0in /  0.0mm 0 W/m2
21:45 62.8 °F /  17.1 °C 58.5 °F /  14.7 °C 30in /  1016.9hPa Calm     86% 0in /  0.0mm 0 W/m2
21:50 62.6 °F /  17 °C 58.6 °F /  14.8 °C 30in /  1016.9hPa Calm     87% 0in /  0.0mm 0 W/m2
21:55 62.4 °F /  16.9 °C 58.5 °F /  14.7 °C 30in /  1016.9hPa Calm     87% 0in /  0.0mm 0 W/m2
22:00 62.2 °F /  16.8 °C 58.3 °F /  14.6 °C 30in /  1016.9hPa Calm     87% 0in /  0.0mm 0 W/m2
22:05 62.2 °F /  16.8 °C 58.6 °F /  14.8 °C 30in /  1016.9hPa Calm     88% 0in /  0.0mm 0 W/m2
22:10 62.1 °F /  16.7 °C 58.5 °F /  14.7 °C 30in /  1016.9hPa Calm     88% 0in /  0.0mm 0 W/m2
22:16 61.9 °F /  16.6 °C 58.3 °F /  14.6 °C 30in /  1017.3hPa Calm     88% 0in /  0.0mm 0 W/m2
22:21 61.7 °F /  16.5 °C 58.5 °F /  14.7 °C 30in /  1017.3hPa Calm     89% 0in /  0.0mm 0 W/m2
22:26 61.5 °F /  16.4 °C 58.3 °F /  14.6 °C 30in /  1017.3hPa Calm     89% 0in /  0.0mm 0 W/m2
22:31 61.5 °F /  16.4 °C 58.3 °F /  14.6 °C 30in /  1017.3hPa Calm     89% 0in /  0.0mm 0 W/m2
22:36 61.5 °F /  16.4 °C 58.3 °F /  14.6 °C 30in /  1017.3hPa Calm   1mph /  1.6km/h 89% 0in /  0.0mm 0 W/m2
22:41 61.5 °F /  16.4 °C 58.6 °F /  14.8 °C 30in /  1017.3hPa Calm   2mph /  3.2km/h 90% 0in /  0.0mm 0 W/m2
22:46 61.9 °F /  16.6 °C 59 °F /  15 °C 30in /  1017.3hPa East 0.9mph /  1.4km/h 2mph /  3.2km/h 90% 0in /  0.0mm 0 W/m2
22:51 61.9 °F /  16.6 °C 59 °F /  15 °C 30in /  1017.3hPa Calm     90% 0in /  0.0mm 0 W/m2
22:56 62.1 °F /  16.7 °C 58.5 °F /  14.7 °C 30in /  1017.3hPa West 2mph /  3.2km/h 3mph /  4.8km/h 88% 0in /  0.0mm 0 W/m2
23:01 62.2 °F /  16.8 °C 57.9 °F /  14.4 °C 30.1in /  1017.6hPa Calm     86% 0in /  0.0mm 0 W/m2
23:06 62.2 °F /  16.8 °C 57.7 °F /  14.3 °C 30.1in /  1017.6hPa NW 0.9mph /  1.4km/h 3mph /  4.8km/h 85% 0in /  0.0mm 0 W/m2
23:11 62.2 °F /  16.8 °C 57.7 °F /  14.3 °C 30.1in /  1017.6hPa NW 0.9mph /  1.4km/h 1mph /  1.6km/h 85% 0in /  0.0mm 0 W/m2
23:16 62.1 °F /  16.7 °C 56.8 °F /  13.8 °C 30.1in /  1017.6hPa West 0.9mph /  1.4km/h 1mph /  1.6km/h 83% 0in /  0.0mm 0 W/m2
23:21 61.9 °F /  16.6 °C 56.3 °F /  13.5 °C 30.1in /  1017.6hPa Calm     82% 0in /  0.0mm 0 W/m2
23:26 61.7 °F /  16.5 °C 55.8 °F /  13.2 °C 30in /  1017.3hPa West 2mph /  3.2km/h 2mph /  3.2km/h 81% 0in /  0.0mm 0 W/m2
23:32 61.5 °F /  16.4 °C 55.2 °F /  12.9 °C 30in /  1017.3hPa Calm   2mph /  3.2km/h 80% 0in /  0.0mm 0 W/m2
23:37 61.5 °F /  16.4 °C 54.9 °F /  12.7 °C 30in /  1017.3hPa Calm   1mph /  1.6km/h 79% 0in /  0.0mm 0 W/m2
23:42 61.7 °F /  16.5 °C 55 °F /  12.8 °C 30in /  1017.3hPa South 0.9mph /  1.4km/h 2mph /  3.2km/h 79% 0in /  0.0mm 0 W/m2
23:47 61.5 °F /  16.4 °C 54.9 °F /  12.7 °C 30in /  1017.3hPa Calm   2mph /  3.2km/h 79% 0in /  0.0mm 0 W/m2
23:52 61.3 °F /  16.3 °C 54.9 °F /  12.7 °C 30in /  1017.3hPa Calm   2mph /  3.2km/h 79% 0in /  0.0mm 0 W/m2
23:57 61.2 °F /  16.2 °C 54.7 °F /  12.6 °C 30in /  1017.3hPa Calm     79% 0in /  0.0mm 0 W/m2
Juneau County Weather
Compliments of Weather Underground - 4 mb